Time;durP1;ratioP1;P1;durP2;ratioP2;P2;SDS_P1;SDS_P2;PMS_P1;PMS_P2;Temp;Humidity;BMP_temperature;BMP_pressure;BME280_temperature;BME280_humidity;BME280_pressure;Samples;Min_cycle;Max_cycle;Signal;HPM_P1;HPM_P2
2021/10/13 00:01:51;;;;;;;22.80;15.55;;;;;;;8.08;65.63;99177.93;1683420;84;21515;-58
2021/10/13 00:04:17;;;;;;;26.68;15.45;;;;;;;8.10;65.94;99171.30;1690028;82;21088;-57
2021/10/13 00:06:44;;;;;;;26.20;16.87;;;;;;;8.19;66.15;99173.11;1675208;83;21898;-58
2021/10/13 00:09:11;;;;;;;21.30;15.53;;;;;;;8.17;66.14;99164.91;1693052;82;21544;-57
2021/10/13 00:11:38;;;;;;;25.23;17.60;;;;;;;8.10;66.24;99163.00;1689111;82;21523;-58
2021/10/13 00:14:04;;;;;;;25.55;17.00;;;;;;;8.06;66.36;99152.70;1680509;82;21483;-57
2021/10/13 00:16:33;;;;;;;23.55;17.27;;;;;;;7.99;66.43;99156.88;1678693;82;21531;-61
2021/10/13 00:19:00;;;;;;;22.55;17.27;;;;;;;7.91;66.48;99154.16;1687136;84;21826;-57
2021/10/13 00:21:27;;;;;;;22.73;15.85;;;;;;;7.83;66.73;99160.17;1693769;83;21454;-58
2021/10/13 00:23:54;;;;;;;23.73;16.05;;;;;;;7.75;66.89;99166.55;1712406;82;21571;-57
2021/10/13 00:26:20;;;;;;;21.15;15.63;;;;;;;7.59;67.17;99157.14;1696996;82;21530;-57
2021/10/13 00:28:47;;;;;;;26.62;16.42;;;;;;;7.61;67.68;99155.78;1708857;83;21686;-57
2021/10/13 00:31:13;;;;;;;23.05;16.30;;;;;;;7.68;67.94;99155.91;1701904;82;22043;-59
2021/10/13 00:33:40;;;;;;;26.00;16.70;;;;;;;7.65;67.92;99160.41;1696543;82;21570;-58
2021/10/13 00:36:08;;;;;;;22.98;16.42;;;;;;;7.58;68.08;99151.50;1698298;82;21053;-58
2021/10/13 00:38:36;;;;;;;23.20;15.45;;;;;;;7.52;68.07;99145.20;1700442;82;21584;-57
2021/10/13 00:41:02;;;;;;;22.75;16.50;;;;;;;7.49;68.16;99163.62;1701777;82;21573;-57
2021/10/13 00:43:29;;;;;;;22.73;16.52;;;;;;;7.43;68.22;99169.09;1696927;82;21860;-57
2021/10/13 00:45:55;;;;;;;22.55;16.75;;;;;;;7.37;68.37;99172.78;1706542;82;21537;-57
2021/10/13 00:48:22;;;;;;;22.17;15.40;;;;;;;7.32;68.49;99176.02;1706223;83;21615;-57
2021/10/13 00:50:49;;;;;;;16.55;14.47;;;;;;;7.33;68.89;99178.20;1708056;82;21151;-59
2021/10/13 00:53:16;;;;;;;21.68;15.75;;;;;;;7.46;69.19;99183.80;1700651;83;21629;-60
2021/10/13 00:55:43;;;;;;;21.23;16.37;;;;;;;7.51;69.30;99181.41;1699577;83;21564;-57
2021/10/13 00:58:09;;;;;;;20.72;15.90;;;;;;;7.51;69.37;99177.95;1701613;83;21456;-57
2021/10/13 01:00:41;;;;;;;21.17;17.32;;;;;;;7.49;69.31;99172.77;1709891;81;21572;-57
2021/10/13 01:03:26;;;;;;;23.32;17.35;;;;;;;7.50;69.58;99169.73;1667083;84;21538;-58
2021/10/13 01:06:10;;;;;;;20.72;16.73;;;;;;;7.50;69.63;99162.72;1697935;82;21570;-58
2021/10/13 01:09:03;;;;;;;24.67;15.98;;;;;;;7.51;69.49;99160.95;1699141;82;21756;-57
2021/10/13 01:11:58;;;;;;;25.88;16.32;;;;;;;7.56;69.82;99167.71;1704493;83;21519;-57
2021/10/13 01:14:51;;;;;;;22.30;16.20;;;;;;;7.68;69.87;99162.45;1706889;82;21600;-57
2021/10/13 01:17:34;;;;;;;25.65;16.50;;;;;;;7.70;69.80;99168.48;1705396;81;21526;-57
2021/10/13 01:20:06;;;;;;;22.60;16.37;;;;;;;7.68;69.78;99160.30;1705310;83;21521;-59
2021/10/13 01:22:53;;;;;;;25.72;15.90;;;;;;;7.67;69.73;99156.84;1702443;82;21815;-58
2021/10/13 01:25:48;;;;;;;26.00;17.17;;;;;;;7.66;69.69;99159.05;1702827;82;21490;-58
2021/10/13 01:28:23;;;;;;;25.27;15.23;;;;;;;7.65;69.69;99153.44;1704716;82;21506;-57
2021/10/13 01:31:15;;;;;;;21.62;15.13;;;;;;;7.72;69.91;99152.30;1678599;84;21532;-57
2021/10/13 01:33:50;;;;;;;21.80;15.40;;;;;;;7.80;69.69;99155.92;1609139;84;21576;-57
2021/10/13 01:36:21;;;;;;;24.98;15.45;;;;;;;7.75;69.57;99158.70;1654369;84;22135;-57
2021/10/13 01:38:50;;;;;;;21.35;15.05;;;;;;;7.70;69.50;99158.48;1650864;85;20992;-57
2021/10/13 01:41:17;;;;;;;23.40;15.58;;;;;;;7.64;69.54;99166.58;1697113;82;21478;-56
2021/10/13 01:43:47;;;;;;;20.88;16.10;;;;;;;7.57;69.51;99159.40;1697225;82;21010;-57
2021/10/13 01:46:15;;;;;;;21.77;15.93;;;;;;;7.52;69.60;99165.28;1695569;82;21466;-57
2021/10/13 01:48:44;;;;;;;21.23;15.40;;;;;;;7.48;69.51;99167.59;1704535;82;21823;-56
2021/10/13 01:51:12;;;;;;;19.48;15.70;;;;;;;7.47;69.66;99161.52;1696398;82;21459;-56
2021/10/13 01:53:39;;;;;;;22.22;15.63;;;;;;;7.50;69.85;99156.18;1696904;83;21525;-57
2021/10/13 01:56:06;;;;;;;24.47;15.48;;;;;;;7.46;69.86;99158.52;1700061;82;21526;-57
2021/10/13 01:58:34;;;;;;;23.60;16.75;;;;;;;7.38;69.94;99162.73;1699997;82;21451;-57
2021/10/13 02:01:02;;;;;;;21.87;15.95;;;;;;;7.32;69.91;99165.56;1694134;83;21706;-56
2021/10/13 02:03:30;;;;;;;;;;;;;;;7.25;70.00;99173.69;1703942;83;21653;-56
2021/10/13 02:05:59;;;;;;;;;;;;;;;7.16;70.37;99182.73;1701400;83;20491;-57
2021/10/13 02:08:26;;;;;;;21.02;15.23;;;;;;;7.05;70.56;99180.97;1705360;82;20421;-57
2021/10/13 02:10:53;;;;;;;19.05;15.40;;;;;;;6.94;70.22;99174.80;1703180;82;21504;-56
2021/10/13 02:13:22;;;;;;;20.55;15.50;;;;;;;6.92;70.56;99181.39;1692955;83;21515;-57
2021/10/13 02:15:48;;;;;;;21.33;15.70;;;;;;;6.99;70.58;99185.95;1702123;83;21021;-57
2021/10/13 02:18:23;;;;;;;22.00;16.93;;;;;;;6.99;70.56;99197.72;1707216;82;21522;-57
2021/10/13 02:20:50;;;;;;;22.27;16.17;;;;;;;6.94;70.72;99198.33;1703552;83;21632;-57
2021/10/13 02:23:17;;;;;;;21.73;17.07;;;;;;;6.90;70.74;99206.72;1691250;82;21510;-57
2021/10/13 02:25:49;;;;;;;20.47;17.23;;;;;;;6.85;71.11;99209.94;1697801;82;21577;-57
2021/10/13 02:28:23;;;;;;;23.22;16.37;;;;;;;6.82;71.43;99215.30;1703673;82;21084;-58
2021/10/13 02:30:51;;;;;;;19.62;15.93;;;;;;;6.83;71.86;99212.60;1701449;82;21712;-57
2021/10/13 02:33:18;;;;;;;25.43;15.98;;;;;;;6.98;72.02;99200.77;1699057;82;21577;-57
2021/10/13 02:35:45;;;;;;;24.50;17.97;;;;;;;7.01;72.11;99198.52;1690663;82;21420;-58
2021/10/13 02:38:11;;;;;;;23.10;18.25;;;;;;;7.01;72.20;99191.98;1700287;82;22095;-57
2021/10/13 02:40:38;;;;;;;24.90;18.80;;;;;;;7.01;72.24;99192.83;1708659;83;21578;-58
2021/10/13 02:43:05;;;;;;;24.43;17.87;;;;;;;7.02;72.14;99191.06;1701417;83;21479;-57
2021/10/13 02:45:37;;;;;;;23.90;16.25;;;;;;;7.00;72.14;99188.48;1697624;82;21466;-58
2021/10/13 02:48:12;;;;;;;25.23;16.70;;;;;;;7.05;72.36;99183.58;1701049;83;21459;-57
2021/10/13 02:51:09;;;;;;;22.77;17.25;;;;;;;7.16;72.28;99187.50;1703813;83;21742;-59
2021/10/13 02:53:50;;;;;;;23.90;17.62;;;;;;;7.16;72.24;99190.58;1698566;83;21612;-57
2021/10/13 02:56:34;;;;;;;26.37;17.65;;;;;;;7.10;72.30;99192.09;1683311;82;21498;-58
2021/10/13 02:59:12;;;;;;;27.52;18.73;;;;;;;7.07;72.24;99188.30;1701917;82;21597;-57
2021/10/13 03:01:42;;;;;;;23.67;18.10;;;;;;;7.04;72.30;99194.47;1695095;82;21009;-57
2021/10/13 03:04:17;;;;;;;25.00;17.77;;;;;;;7.01;72.38;99198.05;1701692;82;21682;-57
2021/10/13 03:06:55;;;;;;;27.32;18.42;;;;;;;7.07;72.59;99193.06;1688117;82;21561;-57
2021/10/13 03:09:21;;;;;;;21.37;17.87;;;;;;;7.16;72.63;99190.12;1708869;82;21475;-56
2021/10/13 03:11:49;;;;;;;23.87;17.40;;;;;;;7.16;72.56;99199.73;1703305;83;21534;-56
2021/10/13 03:14:22;;;;;;;26.70;18.52;;;;;;;7.13;72.56;99203.75;1699190;82;21518;-57
2021/10/13 03:16:50;;;;;;;24.75;17.87;;;;;;;7.11;72.57;99211.65;1696480;83;21882;-56
2021/10/13 03:19:19;;;;;;;22.00;18.05;;;;;;;7.08;72.49;99211.74;1699046;82;21081;-57
2021/10/13 03:21:47;;;;;;;;;;;;;;;7.05;72.44;99212.34;1708231;82;21510;-57
2021/10/13 03:24:16;;;;;;;24.30;17.92;;;;;;;7.07;72.96;99213.12;1698754;82;20522;-57
2021/10/13 03:26:49;;;;;;;22.15;17.57;;;;;;;7.15;72.62;99211.93;1702396;81;21435;-57
2021/10/13 03:29:16;;;;;;;24.18;18.90;;;;;;;7.15;72.59;99216.31;1705167;83;21813;-57
2021/10/13 03:31:43;;;;;;;27.58;19.75;;;;;;;7.14;72.56;99225.05;1705612;83;21407;-57
2021/10/13 03:34:10;;;;;;;21.73;17.35;;;;;;;7.12;72.52;99221.21;1706808;82;20990;-56
2021/10/13 03:36:48;;;;;;;24.57;18.48;;;;;;;7.09;72.57;99215.23;1694480;82;21588;-57
2021/10/13 03:39:15;;;;;;;23.25;16.60;;;;;;;7.07;72.62;99223.13;1708993;83;21770;-56
2021/10/13 03:41:42;;;;;;;22.50;16.75;;;;;;;7.11;72.82;99226.48;1705767;82;21846;-57
2021/10/13 03:44:09;;;;;;;23.07;17.53;;;;;;;7.21;72.80;99223.93;1689378;83;20966;-57
2021/10/13 03:46:37;;;;;;;22.30;17.65;;;;;;;7.20;72.71;99218.32;1697837;82;21649;-57
2021/10/13 03:49:04;;;;;;;;;;;;;;;7.18;72.76;99222.29;1708850;82;21527;-57
2021/10/13 03:51:30;;;;;;;26.35;18.10;;;;;;;7.15;72.81;99215.01;1698407;83;20428;-56
2021/10/13 03:53:57;;;;;;;25.40;18.57;;;;;;;7.05;72.93;99213.18;1704023;82;22054;-56
2021/10/13 03:56:24;;;;;;;23.15;17.70;;;;;;;6.99;72.98;99209.48;1700931;83;21578;-56
2021/10/13 03:58:51;;;;;;;29.02;19.17;;;;;;;7.01;73.44;99207.66;1701139;83;21471;-57
2021/10/13 04:01:17;;;;;;;26.68;18.30;;;;;;;7.10;73.49;99203.42;1701051;82;21597;-56
2021/10/13 04:03:45;;;;;;;28.17;19.23;;;;;;;7.10;73.55;99205.16;1705536;82;21578;-57
2021/10/13 04:06:11;;;;;;;30.37;20.80;;;;;;;7.08;73.63;99200.44;1705739;82;21824;-57
2021/10/13 04:08:38;;;;;;;31.23;19.90;;;;;;;7.06;73.73;99200.95;1703401;83;21507;-57
2021/10/13 04:11:05;;;;;;;28.02;19.10;;;;;;;7.04;73.72;99194.47;1709831;82;21447;-57
2021/10/13 04:13:32;;;;;;;26.68;19.15;;;;;;;7.06;73.94;99196.57;1719305;82;21081;-57
2021/10/13 04:15:59;;;;;;;30.25;20.00;;;;;;;7.18;73.94;99200.06;1698508;83;21529;-57
2021/10/13 04:18:26;;;;;;;28.98;22.13;;;;;;;7.21;73.86;99200.40;1708150;82;22092;-57
2021/10/13 04:20:52;;;;;;;36.60;26.27;;;;;;;7.18;73.93;99196.61;1708509;83;21561;-57
2021/10/13 04:23:19;;;;;;;34.25;25.10;;;;;;;7.17;74.01;99197.04;1681576;83;21595;-58
2021/10/13 04:25:46;;;;;;;31.62;24.02;;;;;;;7.16;73.81;99203.19;1683811;82;21062;-57
2021/10/13 04:28:13;;;;;;;31.10;24.40;;;;;;;7.17;73.73;99199.66;1693190;82;21579;-57
2021/10/13 04:30:39;;;;;;;32.10;23.92;;;;;;;7.24;73.77;99205.99;1689894;84;21836;-57
2021/10/13 04:33:06;;;;;;;33.05;25.27;;;;;;;7.34;73.66;99210.81;1687243;84;21530;-57
2021/10/13 04:35:34;;;;;;;34.18;24.70;;;;;;;7.39;73.59;99200.20;1679740;83;21595;-56
2021/10/13 04:38:05;;;;;;;31.25;24.90;;;;;;;7.38;73.38;99208.51;1676342;82;22494;-57
2021/10/13 04:40:33;;;;;;;32.23;24.10;;;;;;;7.36;73.23;99215.53;1689610;84;21694;-59
2021/10/13 04:43:01;;;;;;;28.47;22.23;;;;;;;7.34;73.19;99220.42;1687546;84;21528;-57
2021/10/13 04:45:27;;;;;;;29.17;20.83;;;;;;;7.31;73.17;99215.30;1688425;82;21771;-58
2021/10/13 04:47:54;;;;;;;31.42;20.82;;;;;;;7.35;73.28;99215.61;1682170;84;21484;-57
2021/10/13 04:50:21;;;;;;;26.12;19.42;;;;;;;7.47;73.19;99222.14;1688173;82;21540;-58
2021/10/13 04:52:48;;;;;;;29.15;20.43;;;;;;;7.48;73.01;99239.10;1682650;83;21578;-57
2021/10/13 04:55:15;;;;;;;28.83;19.92;;;;;;;7.47;72.95;99244.38;1687552;82;21845;-57
2021/10/13 04:57:43;;;;;;;25.25;19.37;;;;;;;7.48;72.89;99229.95;1685664;82;21615;-58
2021/10/13 05:00:12;;;;;;;29.50;20.72;;;;;;;7.46;72.81;99220.00;1691900;82;21015;-57
2021/10/13 05:02:39;;;;;;;26.17;18.62;;;;;;;7.42;72.80;99217.06;1683538;83;21010;-58
2021/10/13 05:05:06;;;;;;;27.87;19.10;;;;;;;7.45;73.07;99217.43;1677373;82;21121;-57
2021/10/13 05:07:34;;;;;;;28.12;19.23;;;;;;;7.54;73.08;99224.48;1687275;82;21901;-57
2021/10/13 05:10:01;;;;;;;31.85;20.92;;;;;;;7.57;72.96;99229.61;1688767;82;21733;-58
2021/10/13 05:12:27;;;;;;;28.40;20.60;;;;;;;7.51;73.17;99238.13;1683250;83;21562;-58
2021/10/13 05:14:55;;;;;;;27.10;19.92;;;;;;;7.47;73.06;99240.45;1678896;84;21638;-57
2021/10/13 05:17:24;;;;;;;29.98;20.82;;;;;;;7.45;73.09;99243.12;1676391;82;21523;-58
2021/10/13 05:19:51;;;;;;;26.62;18.92;;;;;;;7.44;72.93;99249.28;1690008;83;21460;-57
2021/10/13 05:22:17;;;;;;;29.05;19.05;;;;;;;7.50;73.05;99245.59;1692441;82;21148;-57
2021/10/13 05:24:44;;;;;;;27.93;20.15;;;;;;;7.67;72.85;99247.59;1681450;83;21065;-58
2021/10/13 05:27:11;;;;;;;30.90;22.55;;;;;;;7.73;72.63;99242.11;1688301;83;21430;-58
2021/10/13 05:29:38;;;;;;;37.40;23.92;;;;;;;7.72;72.50;99250.43;1684075;82;21518;-58
2021/10/13 05:32:06;;;;;;;37.25;26.40;;;;;;;7.74;72.35;99249.03;1691614;83;21834;-57
2021/10/13 05:34:32;;;;;;;44.83;28.15;;;;;;;7.75;72.28;99254.22;1687807;83;28775;-58
2021/10/13 05:36:59;;;;;;;38.88;26.35;;;;;;;7.76;72.25;99247.22;1683068;84;21539;-58
2021/10/13 05:39:26;;;;;;;46.23;27.67;;;;;;;7.84;72.43;99252.19;1676950;82;21097;-61
2021/10/13 05:41:53;;;;;;;46.35;27.42;;;;;;;8.02;72.07;99254.55;1692856;83;21598;-58
2021/10/13 05:44:20;;;;;;;43.35;27.55;;;;;;;8.03;71.75;99258.42;1688827;82;22031;-57
2021/10/13 05:46:46;;;;;;;55.75;32.70;;;;;;;8.02;71.75;99252.77;1674342;84;21567;-57
2021/10/13 05:49:13;;;;;;;44.90;30.48;;;;;;;8.03;71.35;99269.36;1690761;83;21582;-57
2021/10/13 05:51:39;;;;;;;48.20;31.20;;;;;;;8.01;71.19;99268.09;1690638;83;21499;-58
2021/10/13 05:54:06;;;;;;;47.33;31.77;;;;;;;7.99;71.13;99271.23;1685525;83;21614;-57
2021/10/13 05:56:33;;;;;;;48.98;27.82;;;;;;;7.95;71.25;99267.03;1679658;83;21500;-57
2021/10/13 05:58:59;;;;;;;43.50;25.92;;;;;;;8.02;71.46;99273.71;1688036;83;21531;-58
2021/10/13 06:01:26;;;;;;;40.80;27.35;;;;;;;8.19;71.23;99279.61;1689943;83;21523;-58
2021/10/13 06:03:53;;;;;;;39.98;25.48;;;;;;;8.28;71.01;99274.48;1684618;83;21507;-59
2021/10/13 06:06:19;;;;;;;39.92;28.23;;;;;;;8.33;70.83;99273.86;1687190;82;21522;-57
2021/10/13 06:08:46;;;;;;;49.42;32.00;;;;;;;8.36;70.73;99275.02;1691686;82;22015;-58
2021/10/13 06:11:13;;;;;;;52.83;32.00;;;;;;;8.34;70.42;99274.23;1689905;82;21097;-59
2021/10/13 06:13:41;;;;;;;38.17;28.50;;;;;;;8.34;70.40;99277.73;1648343;85;21523;-58
2021/10/13 06:16:10;;;;;;;40.48;25.95;;;;;;;8.33;70.27;99276.47;1687536;82;21050;-58
2021/10/13 06:18:40;;;;;;;39.90;25.50;;;;;;;8.34;70.42;99267.25;1689430;83;21646;-58
2021/10/13 06:21:06;;;;;;;34.73;22.10;;;;;;;8.49;70.61;99274.95;1682890;83;21546;-59
2021/10/13 06:23:35;;;;;;;35.00;23.57;;;;;;;8.55;70.09;99268.19;1694457;82;21578;-58
2021/10/13 06:26:02;;;;;;;35.73;23.98;;;;;;;8.60;69.82;99271.07;1706460;82;21444;-59
2021/10/13 06:28:28;;;;;;;36.13;25.13;;;;;;;8.62;69.74;99270.08;1709650;82;21514;-59
2021/10/13 06:30:55;;;;;;;33.20;24.25;;;;;;;8.63;69.80;99269.18;1708746;82;21571;-61
2021/10/13 06:33:22;;;;;;;36.58;24.23;;;;;;;8.62;69.17;99276.63;1695268;81;21423;-57
2021/10/13 06:35:49;;;;;;;30.27;23.18;;;;;;;8.57;69.31;99280.77;1699821;82;21526;-61
2021/10/13 06:38:16;;;;;;;33.02;21.37;;;;;;;8.61;69.34;99280.19;1708398;82;21573;-61
2021/10/13 06:40:43;;;;;;;30.68;22.98;;;;;;;8.72;69.75;99278.41;1698241;83;21507;-62
2021/10/13 06:43:11;;;;;;;31.15;22.00;;;;;;;8.87;69.47;99281.74;1715855;81;21112;-60
2021/10/13 06:45:38;;;;;;;;;;;;;;;8.93;69.16;99276.70;1719682;81;21903;-58
2021/10/13 06:48:06;;;;;;;30.40;23.25;;;;;;;8.93;69.08;99274.92;1715658;81;20475;-59
2021/10/13 06:50:33;;;;;;;36.28;22.87;;;;;;;8.93;68.92;99280.17;1720329;81;21878;-59
2021/10/13 06:53:03;;;;;;;33.90;22.87;;;;;;;8.92;68.71;99275.83;1717414;81;21526;-62
2021/10/13 06:55:31;;;;;;;34.50;25.15;;;;;;;8.93;68.55;99282.79;1715468;81;21553;-65
2021/10/13 06:57:59;;;;;;;34.60;25.05;;;;;;;8.95;68.58;99286.20;1717084;81;21987;-59
2021/10/13 07:00:25;;;;;;;33.48;21.62;;;;;;;8.94;68.47;99281.02;1685465;83;21591;-59
2021/10/13 07:02:52;;;;;;;29.05;21.15;;;;;;;9.00;68.67;99286.45;1684660;83;21490;-60
2021/10/13 07:05:19;;;;;;;30.57;21.33;;;;;;;9.10;68.47;99289.10;1681275;83;21505;-60
2021/10/13 07:07:47;;;;;;;26.50;21.12;;;;;;;9.10;68.40;99286.48;1689136;83;21692;-61
2021/10/13 07:10:15;;;;;;;30.27;21.85;;;;;;;9.09;68.32;99282.14;1724201;81;21773;-60
2021/10/13 07:12:43;;;;;;;32.60;22.58;;;;;;;9.08;68.26;99277.36;1717011;81;21097;-60
2021/10/13 07:15:10;;;;;;;27.15;20.37;;;;;;;9.10;67.94;99277.30;1714109;81;21637;-60
2021/10/13 07:17:37;;;;;;;25.65;20.77;;;;;;;9.10;67.85;99280.77;1715284;81;21639;-60
2021/10/13 07:20:05;;;;;;;28.87;20.62;;;;;;;9.14;67.73;99278.87;1721281;81;21526;-59
2021/10/13 07:22:32;;;;;;;28.12;22.35;;;;;;;9.18;67.59;99284.84;1716126;81;21888;-60
2021/10/13 07:24:59;;;;;;;33.58;21.00;;;;;;;9.18;67.46;99286.15;1719059;81;21573;-60
2021/10/13 07:27:27;;;;;;;27.62;20.15;;;;;;;9.19;67.80;99284.75;1718691;81;21062;-61
2021/10/13 07:29:59;;;;;;;29.92;21.35;;;;;;;9.32;67.78;99290.33;1720043;81;21432;-60
2021/10/13 07:32:27;;;;;;;25.82;19.90;;;;;;;9.37;67.58;99293.61;1723028;81;21060;-59
2021/10/13 07:34:53;;;;;;;28.02;20.75;;;;;;;9.41;67.69;99296.95;1713806;81;22013;-61
2021/10/13 07:37:20;;;;;;;25.32;19.00;;;;;;;9.43;67.50;99292.02;1703938;81;21448;-60
2021/10/13 07:39:47;;;;;;;23.60;17.52;;;;;;;9.44;67.58;99284.56;1714253;81;21054;-59
2021/10/13 07:42:18;;;;;;;26.75;16.55;;;;;;;9.44;66.79;99292.90;1707568;81;21577;-60
2021/10/13 07:44:44;;;;;;;26.48;17.20;;;;;;;9.44;66.64;99289.81;1707166;81;21581;-60
2021/10/13 07:47:11;;;;;;;23.30;17.15;;;;;;;9.46;66.32;99284.50;1715304;82;21980;-60
2021/10/13 07:49:39;;;;;;;28.83;18.37;;;;;;;9.38;66.17;99284.84;1704690;82;21558;-60
2021/10/13 07:52:06;;;;;;;24.47;18.00;;;;;;;9.38;66.10;99283.96;1711859;82;21508;-60
2021/10/13 07:54:35;;;;;;;26.90;15.85;;;;;;;9.39;65.96;99283.05;1704813;83;21062;-59
2021/10/13 07:57:02;;;;;;;18.95;14.78;;;;;;;9.44;66.04;99280.62;1701314;82;20946;-60
2021/10/13 07:59:29;;;;;;;20.72;15.45;;;;;;;9.58;65.77;99287.88;1709933;81;21568;-60
2021/10/13 08:01:56;;;;;;;22.90;16.23;;;;;;;9.64;65.60;99286.28;1698755;82;21088;-60
2021/10/13 08:04:22;;;;;;;21.33;15.93;;;;;;;9.66;65.44;99291.47;1703041;81;21541;-60
2021/10/13 08:06:50;;;;;;;20.25;16.12;;;;;;;9.71;65.30;99286.41;1708761;82;21518;-59
2021/10/13 08:09:17;;;;;;;21.45;16.35;;;;;;;9.78;64.96;99289.63;1710423;82;21542;-59
2021/10/13 08:11:44;;;;;;;18.90;15.38;;;;;;;9.73;64.72;99291.13;1710191;82;21709;-60
2021/10/13 08:14:11;;;;;;;23.87;15.88;;;;;;;9.74;64.77;99286.75;1711633;82;21037;-60
2021/10/13 08:16:38;;;;;;;20.70;16.48;;;;;;;9.73;64.89;99287.66;1703470;81;21005;-61
2021/10/13 08:19:05;;;;;;;22.77;16.23;;;;;;;9.80;64.88;99284.31;1706441;82;21522;-60
2021/10/13 08:21:31;;;;;;;21.60;15.72;;;;;;;9.85;64.71;99287.11;1698278;82;21978;-60
2021/10/13 08:23:58;;;;;;;23.85;16.02;;;;;;;9.89;64.66;99281.27;1700287;82;22051;-60
2021/10/13 08:26:25;;;;;;;25.10;17.90;;;;;;;9.92;64.27;99281.95;1703507;82;21593;-60
2021/10/13 08:28:51;;;;;;;22.55;17.23;;;;;;;9.79;64.04;99284.74;1709508;82;21439;-60
2021/10/13 08:31:18;;;;;;;23.00;18.07;;;;;;;9.77;64.41;99280.49;1700501;82;21530;-60
2021/10/13 08:33:44;;;;;;;17.98;15.43;;;;;;;9.82;64.35;99279.83;1706606;82;21735;-61
2021/10/13 08:36:11;;;;;;;17.40;14.95;;;;;;;9.84;64.38;99274.05;1697051;83;21799;-60
2021/10/13 08:38:38;;;;;;;22.77;16.17;;;;;;;9.94;64.22;99273.56;1704137;82;21495;-61
2021/10/13 08:41:05;;;;;;;22.20;15.05;;;;;;;9.94;64.14;99274.00;1707065;82;21526;-61
2021/10/13 08:43:33;;;;;;;21.77;16.25;;;;;;;9.93;64.24;99277.57;1711244;82;21673;-60
2021/10/13 08:46:00;;;;;;;23.87;16.35;;;;;;;9.93;64.11;99274.48;1704097;82;21519;-61
2021/10/13 08:48:27;;;;;;;19.07;16.35;;;;;;;9.99;63.94;99273.81;1705009;82;21814;-60
2021/10/13 08:50:54;;;;;;;25.23;17.30;;;;;;;10.00;63.65;99279.44;1709457;82;20931;-60
2021/10/13 08:53:21;;;;;;;24.45;16.93;;;;;;;10.01;63.67;99282.47;1707186;82;21510;-60
2021/10/13 08:55:48;;;;;;;20.30;15.87;;;;;;;10.02;63.55;99277.15;1705642;82;21577;-60
2021/10/13 08:58:23;;;;;;;28.57;18.27;;;;;;;10.04;63.65;99283.62;1702459;82;21434;-62
2021/10/13 09:00:53;;;;;;;24.23;17.10;;;;;;;10.07;63.88;99284.33;1703970;82;22108;-61
2021/10/13 09:03:30;;;;;;;21.97;17.48;;;;;;;10.08;63.66;99284.73;1694300;83;20962;-60
2021/10/13 09:05:58;;;;;;;25.45;17.00;;;;;;;10.05;63.32;99289.27;1703395;82;21613;-61
2021/10/13 09:08:24;;;;;;;;;;;;;;;10.07;63.40;99287.43;1707312;82;21503;-61
2021/10/13 09:10:55;;;;;;;19.25;16.48;;;;;;;10.08;63.39;99284.73;1696999;83;20573;-59
2021/10/13 09:13:22;;;;;;;25.92;16.80;;;;;;;10.08;63.34;99287.36;1707101;82;22198;-60
2021/10/13 09:15:51;;;;;;;23.55;16.55;;;;;;;10.11;63.15;99287.67;1711570;82;21545;-60
2021/10/13 09:18:22;;;;;;;21.65;16.12;;;;;;;10.10;63.05;99286.83;1709294;82;21558;-57
2021/10/13 09:20:53;;;;;;;21.30;16.20;;;;;;;10.11;63.02;99292.48;1705012;82;21521;-60
2021/10/13 09:23:28;;;;;;;20.25;17.15;;;;;;;10.12;62.87;99292.86;1709670;82;21604;-59
2021/10/13 09:26:09;;;;;;;18.35;16.27;;;;;;;10.05;62.79;99295.38;1712515;82;21766;-60
2021/10/13 09:28:36;;;;;;;24.60;15.55;;;;;;;10.06;63.28;99290.52;1704059;81;21529;-59
2021/10/13 09:31:18;;;;;;;19.67;16.05;;;;;;;10.19;63.42;99299.13;1708465;82;21423;-59
2021/10/13 09:33:59;;;;;;;22.77;16.48;;;;;;;10.30;63.04;99298.17;1710512;82;21514;-59
2021/10/13 09:37:49;;;;;;;22.73;15.53;;;;;;;10.31;62.31;99301.23;1777724;78;23282;-58
2021/10/13 09:40:33;;;;;;;25.50;15.72;;;;;;;10.23;62.23;99298.09;1747450;80;21502;-60
2021/10/13 09:43:01;;;;;;;21.85;15.50;;;;;;;10.24;61.91;99303.72;1733802;80;21860;-58
2021/10/13 09:45:29;;;;;;;20.55;15.23;;;;;;;10.19;62.13;99299.13;1740562;80;21606;-58
2021/10/13 09:48:03;;;;;;;20.48;14.85;;;;;;;10.21;61.99;99301.22;1745400;80;21514;-58
2021/10/13 09:50:47;;;;;;;20.68;15.40;;;;;;;10.20;62.02;99301.69;1738313;80;21116;-58
2021/10/13 09:53:26;;;;;;;24.60;15.60;;;;;;;10.20;61.99;99306.11;1733843;80;21546;-58
2021/10/13 09:55:54;;;;;;;19.17;16.65;;;;;;;10.22;62.09;99303.78;1732107;80;21581;-58
2021/10/13 09:58:37;;;;;;;23.95;16.23;;;;;;;10.23;62.06;99304.66;1730259;80;21606;-57
2021/10/13 10:01:16;;;;;;;23.45;17.15;;;;;;;10.22;62.26;99302.47;1740101;80;21057;-58
2021/10/13 10:03:46;;;;;;;23.83;16.73;;;;;;;10.24;62.11;99299.78;1743375;80;21554;-59
2021/10/13 10:06:14;;;;;;;21.93;16.55;;;;;;;10.27;62.01;99299.17;1734617;80;21080;-61
2021/10/13 10:09:03;;;;;;;24.30;16.25;;;;;;;10.29;61.95;99297.80;1722479;81;21794;-58
2021/10/13 10:11:40;;;;;;;20.55;16.20;;;;;;;10.34;62.01;99299.78;1746385;80;21562;-58
2021/10/13 10:14:36;;;;;;;22.63;16.47;;;;;;;10.42;62.02;99303.36;1736698;80;21625;-58
2021/10/13 10:17:04;;;;;;;21.75;17.07;;;;;;;10.43;61.73;99296.69;1728671;80;20970;-60
2021/10/13 10:19:43;;;;;;;19.45;16.32;;;;;;;10.42;61.74;99292.37;1741416;80;21456;-61
2021/10/13 10:22:18;;;;;;;28.32;17.67;;;;;;;10.45;61.89;99302.76;1750030;80;21726;-58
2021/10/13 10:24:53;;;;;;;29.95;16.85;;;;;;;10.48;61.66;99297.33;1740066;80;21510;-58
2021/10/13 10:27:27;;;;;;;24.15;18.02;;;;;;;10.50;61.39;99305.16;1736026;80;21116;-59
2021/10/13 10:30:08;;;;;;;23.10;17.27;;;;;;;10.49;61.46;99301.67;1745358;80;21522;-60
2021/10/13 10:32:43;;;;;;;22.70;17.23;;;;;;;10.52;61.45;99296.25;1746387;80;21018;-59
2021/10/13 10:35:14;;;;;;;23.90;17.65;;;;;;;10.49;61.30;99296.86;1744824;80;21801;-59
2021/10/13 10:37:51;;;;;;;23.87;16.93;;;;;;;10.52;61.32;99300.67;1720604;80;21606;-59
2021/10/13 10:40:35;;;;;;;24.77;17.67;;;;;;;10.54;61.11;99301.44;1744067;80;21527;-60
2021/10/13 10:43:22;;;;;;;22.07;17.12;;;;;;;10.56;60.99;99296.12;1744785;80;21613;-60
2021/10/13 10:45:54;;;;;;;23.02;16.62;;;;;;;10.56;60.91;99291.70;1735426;81;21596;-59
2021/10/13 10:48:22;;;;;;;21.27;17.55;;;;;;;10.61;60.73;99296.75;1733850;80;21815;-59
2021/10/13 10:50:57;;;;;;;21.60;17.10;;;;;;;10.61;60.58;99291.02;1738568;80;21538;-62
2021/10/13 10:53:33;;;;;;;25.82;17.80;;;;;;;10.62;60.34;99292.71;1740151;80;21558;-59
2021/10/13 10:56:18;;;;;;;21.87;16.57;;;;;;;10.64;60.33;99290.02;1736264;80;21455;-60
2021/10/13 10:59:01;;;;;;;24.72;17.25;;;;;;;10.64;60.41;99291.33;1738978;80;21081;-60
2021/10/13 11:01:28;;;;;;;23.95;17.85;;;;;;;10.65;60.48;99286.00;1736748;80;21817;-61
2021/10/13 11:03:55;;;;;;;23.32;16.70;;;;;;;10.68;60.30;99289.81;1738161;80;21021;-59
2021/10/13 11:06:27;;;;;;;26.97;17.30;;;;;;;10.73;60.34;99299.24;1739597;80;21606;-59
2021/10/13 11:09:02;;;;;;;20.48;15.58;;;;;;;10.77;60.59;99293.74;1741257;80;21680;-58
2021/10/13 11:11:45;;;;;;;24.02;16.15;;;;;;;10.83;60.18;99297.41;1740338;80;21568;-57
2021/10/13 11:14:21;;;;;;;21.82;17.52;;;;;;;10.88;59.94;99291.44;1740186;80;21869;-58
2021/10/13 11:16:58;;;;;;;21.77;15.93;;;;;;;10.89;59.61;99297.09;1739958;80;21505;-58
2021/10/13 11:19:35;;;;;;;22.05;16.40;;;;;;;10.91;59.83;99286.50;1734110;80;21639;-58
2021/10/13 11:22:07;;;;;;;20.88;16.90;;;;;;;10.93;59.73;99293.86;1742550;80;21515;-59
2021/10/13 11:24:39;;;;;;;23.57;16.52;;;;;;;10.99;59.57;99288.75;1728919;80;21618;-59
2021/10/13 11:27:06;;;;;;;20.88;14.83;;;;;;;11.03;59.05;99291.61;1740056;81;21729;-60
2021/10/13 11:29:35;;;;;;;24.45;17.62;;;;;;;11.00;58.59;99290.00;1736284;80;21805;-60
2021/10/13 11:32:14;;;;;;;30.27;19.75;;;;;;;10.99;58.37;99286.13;1743383;80;21582;-60
2021/10/13 11:34:58;;;;;;;21.15;15.72;;;;;;;10.99;58.24;99292.70;1750659;80;21555;-60
2021/10/13 11:37:26;;;;;;;20.82;14.15;;;;;;;11.01;58.36;99290.84;1729735;80;21570;-60
2021/10/13 11:39:53;;;;;;;21.57;13.98;;;;;;;11.00;58.31;99284.73;1739449;80;22009;-60